createdAt,value
2019-02-10T00:00:53.356Z,6.40
2019-02-10T00:03:22.084Z,6.40
2019-02-10T00:05:50.618Z,6.40
2019-02-10T00:08:19.236Z,6.40
2019-02-10T00:10:47.923Z,6.40
2019-02-10T00:13:30.772Z,6.50
2019-02-10T00:16:07.971Z,6.60
2019-02-10T00:18:36.699Z,6.60
2019-02-10T00:21:05.283Z,6.60
2019-02-10T00:23:33.963Z,6.60
2019-02-10T00:26:02.578Z,6.50
2019-02-10T00:28:31.140Z,6.50
2019-02-10T00:30:59.819Z,6.50
2019-02-10T00:33:28.548Z,6.40
2019-02-10T00:35:57.098Z,6.40
2019-02-10T00:38:25.814Z,6.40
2019-02-10T00:40:54.420Z,6.40
2019-02-10T00:43:22.956Z,6.40
2019-02-10T00:45:51.586Z,6.40
2019-02-10T00:48:20.163Z,6.40
2019-02-10T00:50:48.819Z,6.40
2019-02-10T00:53:17.483Z,6.40
2019-02-10T00:55:45.979Z,6.40
2019-02-10T00:58:14.556Z,6.40
2019-02-10T01:00:43.211Z,6.40
2019-02-10T01:03:11.845Z,6.40
2019-02-10T01:05:40.427Z,6.40
2019-02-10T01:08:09.059Z,6.40
2019-02-10T01:10:37.716Z,6.40
2019-02-10T01:13:06.339Z,6.40
2019-02-10T01:15:35.028Z,6.40
2019-02-10T01:18:03.443Z,6.40
2019-02-10T01:20:32.087Z,6.30
2019-02-10T01:23:00.732Z,6.30
2019-02-10T01:25:29.379Z,6.30
2019-02-10T01:27:57.907Z,6.30
2019-02-10T01:30:26.459Z,6.30
2019-02-10T01:32:55.020Z,6.30
2019-02-10T01:35:23.443Z,6.30
2019-02-10T01:37:51.939Z,6.30
2019-02-10T01:40:20.437Z,6.30
2019-02-10T01:42:48.964Z,6.20
2019-02-10T01:45:17.590Z,6.20
2019-02-10T01:47:46.170Z,6.20
2019-02-10T01:50:14.651Z,6.20
2019-02-10T01:52:43.196Z,6.20
2019-02-10T01:55:20.883Z,6.20
2019-02-10T01:57:49.522Z,6.10
2019-02-10T02:00:18.091Z,6.10
2019-02-10T02:02:46.619Z,6.10
2019-02-10T02:05:15.203Z,6.00
2019-02-10T02:07:43.762Z,6.00
2019-02-10T02:10:15.235Z,5.90
2019-02-10T02:12:43.867Z,5.90
2019-02-10T02:15:16.049Z,5.80
2019-02-10T02:17:44.571Z,5.80
2019-02-10T02:20:13.537Z,5.80
2019-02-10T02:22:42.203Z,5.70
2019-02-10T02:25:12.731Z,5.70
2019-02-10T02:27:41.301Z,5.60
2019-02-10T02:30:11.772Z,5.50
2019-02-10T02:32:40.419Z,5.50
2019-02-10T02:35:09.087Z,5.40
2019-02-10T02:37:37.631Z,5.40
2019-02-10T02:40:08.983Z,5.40
2019-02-10T02:42:37.677Z,5.40
2019-02-10T02:45:08.731Z,5.40
2019-02-10T02:47:37.307Z,5.30
2019-02-10T02:50:07.898Z,5.30
2019-02-10T02:52:36.476Z,5.20
2019-02-10T02:55:06.523Z,5.10
2019-02-10T02:57:35.219Z,5.00
2019-02-10T03:00:06.346Z,4.90
2019-02-10T03:02:34.911Z,4.80
2019-02-10T03:05:03.451Z,4.80
2019-02-10T03:07:31.947Z,4.70
2019-02-10T03:10:00.570Z,4.80
2019-02-10T03:12:29.197Z,4.70
2019-02-10T03:14:58.136Z,4.80
2019-02-10T03:17:26.580Z,4.70
2019-02-10T03:19:55.243Z,4.80
2019-02-10T03:22:23.780Z,4.70
2019-02-10T03:24:52.348Z,4.70
2019-02-10T03:27:20.951Z,4.60
2019-02-10T03:29:49.403Z,4.60
2019-02-10T03:32:17.901Z,4.60
2019-02-10T03:34:46.379Z,4.60
2019-02-10T03:37:15.006Z,4.60
2019-02-10T03:39:43.451Z,4.50
2019-02-10T03:42:11.989Z,4.50
2019-02-10T03:44:40.484Z,4.50
2019-02-10T03:47:09.035Z,4.50
2019-02-10T03:49:37.699Z,4.40
2019-02-10T03:52:06.191Z,4.50
2019-02-10T03:54:34.667Z,4.50
2019-02-10T03:57:03.121Z,4.40
2019-02-10T03:59:31.604Z,4.40
2019-02-10T04:02:00.090Z,4.40
2019-02-10T04:04:28.780Z,4.40
2019-02-10T04:06:57.377Z,4.40
2019-02-10T04:09:26.027Z,4.40
2019-02-10T04:11:54.723Z,4.40
2019-02-10T04:14:23.274Z,4.40
2019-02-10T04:16:51.801Z,4.30
2019-02-10T04:19:20.418Z,4.30
2019-02-10T04:21:48.995Z,4.30
2019-02-10T04:24:17.547Z,4.30
2019-02-10T04:26:46.209Z,4.30
2019-02-10T04:29:14.796Z,4.20
2019-02-10T04:31:43.419Z,4.20
2019-02-10T04:34:11.988Z,4.20
2019-02-10T04:36:40.475Z,4.10
2019-02-10T04:39:09.078Z,4.10
2019-02-10T04:41:37.713Z,4.10
2019-02-10T04:44:06.216Z,4.10
2019-02-10T04:46:34.818Z,4.10
2019-02-10T04:49:03.498Z,4.00
2019-02-10T04:51:31.992Z,4.00
2019-02-10T04:54:00.484Z,4.00
2019-02-10T04:56:28.985Z,4.00
2019-02-10T04:58:57.394Z,4.00
2019-02-10T05:01:25.923Z,4.00
2019-02-10T05:03:54.523Z,4.00
2019-02-10T05:06:23.092Z,4.00
2019-02-10T05:08:51.596Z,4.10
2019-02-10T05:11:20.307Z,4.10
2019-02-10T05:13:48.769Z,4.00
2019-02-10T05:16:17.363Z,4.00
2019-02-10T05:18:45.980Z,4.00
2019-02-10T05:21:14.506Z,4.00
2019-02-10T05:23:42.932Z,4.00
2019-02-10T05:26:11.523Z,3.90
2019-02-10T05:28:40.148Z,4.00
2019-02-10T05:31:08.638Z,4.00
2019-02-10T05:33:37.307Z,3.90
2019-02-10T05:36:05.789Z,3.90
2019-02-10T05:38:34.339Z,3.90
2019-02-10T05:41:02.955Z,3.90
2019-02-10T05:43:31.388Z,3.90
2019-02-10T05:45:59.980Z,3.90
2019-02-10T05:48:28.575Z,3.80
2019-02-10T05:50:57.011Z,3.80
2019-02-10T05:53:25.563Z,3.90
2019-02-10T05:55:54.220Z,3.80
2019-02-10T05:58:22.746Z,3.80
2019-02-10T06:00:51.368Z,3.80
2019-02-10T06:03:20.103Z,3.90
2019-02-10T06:05:49.588Z,3.90
2019-02-10T06:08:18.042Z,3.90
2019-02-10T06:10:46.603Z,3.90
2019-02-10T06:13:15.155Z,4.00
2019-02-10T06:15:43.709Z,4.00
2019-02-10T06:18:12.234Z,4.10
2019-02-10T06:20:40.833Z,4.10
2019-02-10T06:23:09.380Z,4.10
2019-02-10T06:25:38.057Z,4.10
2019-02-10T06:28:06.611Z,4.20
2019-02-10T06:30:35.099Z,4.20
2019-02-10T06:33:03.574Z,4.20
2019-02-10T06:35:32.164Z,4.20
2019-02-10T06:38:00.578Z,4.20
2019-02-10T06:40:29.244Z,4.20
2019-02-10T06:42:57.820Z,4.20
2019-02-10T06:45:26.316Z,4.20
2019-02-10T06:47:54.835Z,4.30
2019-02-10T06:50:23.379Z,4.30
2019-02-10T06:52:51.830Z,4.30
2019-02-10T06:55:20.476Z,4.40
2019-02-10T06:57:48.874Z,4.40
2019-02-10T07:00:19.015Z,4.50
2019-02-10T07:03:26.487Z,4.50
2019-02-10T07:05:55.069Z,4.60
2019-02-10T07:08:30.403Z,4.70
2019-02-10T07:10:54.773Z,4.60
2019-02-10T07:13:35.523Z,4.70
2019-02-10T07:16:32.684Z,4.70
2019-02-10T07:19:24.267Z,4.70
2019-02-10T07:21:52.868Z,4.60
2019-02-10T07:24:41.055Z,4.60
2019-02-10T07:27:18.835Z,4.60
2019-02-10T07:30:05.391Z,4.60
2019-02-10T07:32:48.732Z,4.60
2019-02-10T07:35:26.307Z,4.60
2019-02-10T07:38:12.834Z,4.50
2019-02-10T07:41:05.829Z,4.60
2019-02-10T07:43:49.636Z,4.60
2019-02-10T07:46:36.622Z,4.60
2019-02-10T07:49:20.354Z,4.50
2019-02-10T07:52:16.196Z,4.60
2019-02-10T07:54:50.700Z,4.60
2019-02-10T07:57:31.575Z,4.60
2019-02-10T08:00:19.739Z,4.70
2019-02-10T08:02:54.405Z,4.70
2019-02-10T08:05:37.915Z,4.70
2019-02-10T08:08:29.099Z,4.70
2019-02-10T08:11:20.394Z,4.70
2019-02-10T08:13:54.947Z,4.70
2019-02-10T08:16:58.430Z,4.70
2019-02-10T08:19:30.108Z,4.70
2019-02-10T08:22:01.866Z,4.80
2019-02-10T08:24:51.780Z,4.80
2019-02-10T08:27:23.591Z,4.90
2019-02-10T08:30:04.196Z,4.90
2019-02-10T08:32:35.859Z,4.90
2019-02-10T08:35:13.571Z,4.90
2019-02-10T08:37:48.251Z,5.10
2019-02-10T08:40:39.844Z,5.10
2019-02-10T08:43:17.300Z,5.30
2019-02-10T08:46:01.203Z,5.30
2019-02-10T08:48:50.940Z,5.40
2019-02-10T08:51:41.996Z,5.40
2019-02-10T08:54:11.924Z,5.40
2019-02-10T08:56:40.522Z,5.40
2019-02-10T08:59:09.092Z,5.30
2019-02-10T09:01:37.677Z,5.20
2019-02-10T09:04:06.316Z,5.20
2019-02-10T09:06:34.818Z,5.10
2019-02-10T09:09:04.323Z,5.10
2019-02-10T09:11:32.970Z,5.10
2019-02-10T09:14:01.563Z,5.10
2019-02-10T09:16:30.114Z,5.00
2019-02-10T09:18:58.635Z,5.00
2019-02-10T09:21:27.203Z,5.00
2019-02-10T09:23:55.803Z,5.00
2019-02-10T09:26:24.394Z,4.90
2019-02-10T09:28:52.892Z,4.90
2019-02-10T09:31:21.428Z,4.90
2019-02-10T09:33:50.077Z,4.80
2019-02-10T09:36:18.707Z,4.90
2019-02-10T09:38:47.301Z,4.90
2019-02-10T09:41:15.859Z,4.90
2019-02-10T09:43:44.500Z,4.80
2019-02-10T09:46:13.113Z,4.90
2019-02-10T09:48:41.636Z,4.90
2019-02-10T09:51:10.347Z,4.90
2019-02-10T09:53:38.844Z,4.90
2019-02-10T09:56:07.386Z,4.90
2019-02-10T09:58:36.116Z,5.00
2019-02-10T10:01:04.788Z,5.00
2019-02-10T10:03:33.437Z,5.00
2019-02-10T10:06:01.979Z,5.00
2019-02-10T10:08:30.564Z,5.00
2019-02-10T10:10:59.244Z,5.00
2019-02-10T10:13:27.963Z,5.00
2019-02-10T10:15:56.558Z,5.10
2019-02-10T10:18:25.171Z,5.00
2019-02-10T10:20:53.868Z,5.10
2019-02-10T10:23:22.276Z,5.10
2019-02-10T10:25:50.875Z,5.10
2019-02-10T10:28:19.533Z,5.10
2019-02-10T10:30:48.091Z,5.10
2019-02-10T10:33:16.583Z,5.20
2019-02-10T10:35:45.236Z,5.20
2019-02-10T10:38:13.909Z,5.30
2019-02-10T10:40:42.532Z,5.30
2019-02-10T10:43:11.258Z,5.30
2019-02-10T10:45:39.892Z,5.40
2019-02-10T10:48:08.436Z,5.40
2019-02-10T10:50:36.996Z,5.50
2019-02-10T10:53:05.651Z,5.50
2019-02-10T10:55:34.156Z,5.50
2019-02-10T10:58:02.734Z,5.50
2019-02-10T11:00:31.384Z,5.60
2019-02-10T11:03:00.027Z,5.70
2019-02-10T11:05:28.727Z,5.70
2019-02-10T11:07:57.412Z,5.80
2019-02-10T11:10:25.980Z,5.80
2019-02-10T11:12:54.644Z,5.90
2019-02-10T11:15:23.141Z,5.80
2019-02-10T11:17:51.732Z,5.90
2019-02-10T11:20:20.461Z,5.90
2019-02-10T11:22:48.995Z,5.90
2019-02-10T11:25:17.573Z,6.00
2019-02-10T11:27:46.148Z,6.00
2019-02-10T11:30:17.443Z,6.00
2019-02-10T11:32:46.092Z,6.10
2019-02-10T11:35:14.782Z,6.10
2019-02-10T11:37:43.462Z,6.10
2019-02-10T11:40:12.828Z,6.10
2019-02-10T11:42:41.589Z,6.10
2019-02-10T11:45:12.427Z,6.10
2019-02-10T11:47:41.011Z,6.10
2019-02-10T11:50:11.570Z,6.20
2019-02-10T11:52:40.142Z,6.20
2019-02-10T11:55:09.595Z,6.30
2019-02-10T11:57:38.228Z,6.40
2019-02-10T12:00:09.962Z,6.30
2019-02-10T12:02:38.620Z,6.30
2019-02-10T12:05:09.613Z,6.40
2019-02-10T12:07:38.060Z,6.40
2019-02-10T12:10:09.602Z,6.50
2019-02-10T12:12:38.260Z,6.50
2019-02-10T12:15:09.868Z,6.50
2019-02-10T12:17:39.860Z,6.40
2019-02-10T12:20:10.764Z,6.40
2019-02-10T12:22:39.437Z,6.40
2019-02-10T12:25:09.403Z,6.50
2019-02-10T12:27:38.131Z,6.50
2019-02-10T12:30:14.722Z,6.40
2019-02-10T12:32:44.939Z,6.50
2019-02-10T12:35:13.588Z,6.50
2019-02-10T12:37:42.160Z,6.60
2019-02-10T12:40:11.898Z,6.60
2019-02-10T12:42:40.492Z,6.60
2019-02-10T12:45:12.196Z,6.60
2019-02-10T12:47:40.856Z,6.60
2019-02-10T12:50:16.170Z,6.70
2019-02-10T12:52:44.829Z,6.70
2019-02-10T12:55:13.350Z,6.70
2019-02-10T12:57:41.901Z,6.80
2019-02-10T13:00:18.388Z,6.80
2019-02-10T13:02:47.126Z,6.70
2019-02-10T13:05:15.743Z,6.80
2019-02-10T13:07:44.354Z,6.80
2019-02-10T13:10:17.507Z,6.80
2019-02-10T13:12:45.397Z,6.80
2019-02-10T13:15:14.038Z,6.90
2019-02-10T13:17:42.666Z,6.90
2019-02-10T13:20:12.523Z,7.00
2019-02-10T13:22:42.115Z,7.00
2019-02-10T13:25:11.865Z,7.00
2019-02-10T13:27:40.378Z,6.90
2019-02-10T13:30:14.276Z,7.00
2019-02-10T13:32:42.940Z,7.00
2019-02-10T13:35:11.524Z,7.00
2019-02-10T13:37:40.075Z,7.00
2019-02-10T13:40:17.246Z,7.00
2019-02-10T13:42:45.895Z,7.00
2019-02-10T13:45:14.382Z,7.00
2019-02-10T13:47:42.949Z,7.00
2019-02-10T13:50:16.452Z,7.00
2019-02-10T13:52:45.308Z,6.90
2019-02-10T13:55:14.869Z,6.90
2019-02-10T13:57:43.570Z,6.90
2019-02-10T14:00:20.389Z,6.90
2019-02-10T14:02:49.020Z,6.90
2019-02-10T14:05:17.595Z,6.80
2019-02-10T14:07:46.772Z,6.80
2019-02-10T14:10:24.976Z,6.80
2019-02-10T14:12:46.787Z,6.70
2019-02-10T14:15:19.046Z,6.70
2019-02-10T14:17:47.780Z,6.70
2019-02-10T14:20:20.562Z,6.80
2019-02-10T14:22:48.996Z,6.80
2019-02-10T14:25:18.511Z,6.80
2019-02-10T14:27:47.068Z,6.80
2019-02-10T14:30:17.282Z,6.80
2019-02-10T14:32:46.011Z,6.70
2019-02-10T14:35:14.583Z,6.70
2019-02-10T14:37:43.102Z,6.70
2019-02-10T14:40:11.778Z,6.70
2019-02-10T14:42:40.419Z,6.70
2019-02-10T14:45:12.982Z,6.70
2019-02-10T14:47:41.715Z,6.70
2019-02-10T14:50:17.245Z,6.60
2019-02-10T14:52:46.916Z,6.70
2019-02-10T14:55:15.428Z,6.70
2019-02-10T14:57:44.012Z,6.70
2019-02-10T15:00:14.210Z,6.70
2019-02-10T15:02:42.966Z,6.70
2019-02-10T15:05:11.564Z,6.70
2019-02-10T15:07:40.132Z,6.70
2019-02-10T15:10:14.201Z,6.70
2019-02-10T15:12:42.853Z,6.60
2019-02-10T15:15:11.748Z,6.70
2019-02-10T15:17:40.403Z,6.60
2019-02-10T15:20:10.406Z,6.70
2019-02-10T15:22:39.084Z,6.70
2019-02-10T15:25:11.972Z,6.70
2019-02-10T15:27:40.609Z,6.70
2019-02-10T15:30:15.369Z,6.70
2019-02-10T15:32:43.929Z,6.70
2019-02-10T15:35:12.522Z,6.70
2019-02-10T15:37:41.209Z,6.70
2019-02-10T15:40:11.847Z,6.70
2019-02-10T15:42:40.477Z,6.60
2019-02-10T15:45:11.378Z,6.60
2019-02-10T15:47:39.915Z,6.70
2019-02-10T15:50:13.456Z,6.70
2019-02-10T15:52:42.052Z,6.60
2019-02-10T15:55:13.083Z,6.60
2019-02-10T15:57:41.778Z,6.60
2019-02-10T16:00:22.468Z,6.60
2019-02-10T16:02:50.965Z,6.70
2019-02-10T16:05:19.555Z,6.70
2019-02-10T16:07:48.106Z,6.70
2019-02-10T16:10:16.756Z,6.70
2019-02-10T16:12:45.245Z,6.70
2019-02-10T16:15:13.974Z,6.70
2019-02-10T16:17:42.530Z,6.80
2019-02-10T16:20:13.534Z,6.80
2019-02-10T16:22:42.246Z,6.80
2019-02-10T16:25:10.892Z,6.80
2019-02-10T16:27:39.538Z,6.80
2019-02-10T16:30:14.575Z,6.80
2019-02-10T16:32:49.554Z,6.80
2019-02-10T16:35:13.445Z,6.80
2019-02-10T16:37:42.090Z,6.80
2019-02-10T16:40:16.651Z,6.80
2019-02-10T16:42:45.244Z,6.80
2019-02-10T16:45:14.339Z,6.80
2019-02-10T16:47:42.989Z,6.80
2019-02-10T16:50:13.279Z,6.80
2019-02-10T16:52:41.998Z,6.80
2019-02-10T16:55:21.013Z,6.80
2019-02-10T16:57:49.731Z,6.80
2019-02-10T17:00:18.334Z,6.80
2019-02-10T17:02:46.980Z,6.90
2019-02-10T17:05:15.612Z,6.90
2019-02-10T17:07:44.256Z,6.90
2019-02-10T17:10:22.218Z,6.90
2019-02-10T17:12:50.821Z,6.90
2019-02-10T17:15:19.325Z,6.80
2019-02-10T17:17:48.007Z,6.80
2019-02-10T17:20:16.676Z,6.80
2019-02-10T17:22:45.316Z,6.80
2019-02-10T17:25:25.783Z,6.80
2019-02-10T17:27:54.348Z,6.80
2019-02-10T17:30:22.972Z,6.80
2019-02-10T17:32:51.596Z,6.80
2019-02-10T17:35:20.229Z,6.80
2019-02-10T17:37:48.884Z,6.80
2019-02-10T17:40:33.035Z,6.90
2019-02-10T17:43:03.018Z,6.90
2019-02-10T17:45:32.036Z,6.90
2019-02-10T17:48:00.660Z,6.90
2019-02-10T17:50:29.242Z,6.90
2019-02-10T17:52:57.830Z,6.90
2019-02-10T17:55:26.420Z,6.90
2019-02-10T17:57:55.081Z,7.00
2019-02-10T18:00:25.219Z,7.00
2019-02-10T18:02:53.868Z,7.00
2019-02-10T18:05:22.499Z,7.10
2019-02-10T18:07:51.164Z,7.10
2019-02-10T18:10:19.643Z,7.00
2019-02-10T18:12:48.300Z,7.00
2019-02-10T18:15:34.646Z,7.00
2019-02-10T18:18:10.914Z,7.00
2019-02-10T18:20:57.573Z,7.10
2019-02-10T18:23:39.740Z,7.00
2019-02-10T18:26:09.980Z,7.10
2019-02-10T18:28:40.186Z,7.10
2019-02-10T18:31:10.398Z,7.20
2019-02-10T18:33:40.612Z,7.20
2019-02-10T18:36:29.163Z,7.30
2019-02-10T18:38:59.451Z,7.30
2019-02-10T18:41:39.338Z,7.50
2019-02-10T18:44:21.596Z,7.50
2019-02-10T18:46:51.829Z,7.60
2019-02-10T18:49:38.397Z,7.90
2019-02-10T18:52:08.604Z,7.90
2019-02-10T18:54:47.964Z,7.90
2019-02-10T18:57:30.163Z,7.90
2019-02-10T19:00:12.428Z,7.90
2019-02-10T19:02:48.125Z,7.90
2019-02-10T19:05:18.364Z,8.00
2019-02-10T19:07:48.563Z,8.00
2019-02-10T19:10:35.092Z,8.10
2019-02-10T19:13:22.329Z,8.10
2019-02-10T19:16:02.108Z,8.10
2019-02-10T19:18:34.060Z,8.10
2019-02-10T19:21:13.482Z,8.20
2019-02-10T19:23:43.940Z,8.20
2019-02-10T19:26:14.051Z,8.30
2019-02-10T19:28:59.628Z,8.40
2019-02-10T19:31:30.757Z,8.50
2019-02-10T19:34:04.446Z,8.50
2019-02-10T19:36:46.653Z,8.50
2019-02-10T19:39:16.932Z,8.50
2019-02-10T19:42:05.327Z,8.50
2019-02-10T19:44:35.626Z,8.60
2019-02-10T19:47:13.700Z,8.70
2019-02-10T19:50:03.059Z,8.70
2019-02-10T19:52:39.252Z,8.70
2019-02-10T19:55:10.827Z,8.60
2019-02-10T19:57:41.062Z,8.70
2019-02-10T20:00:24.429Z,8.70
2019-02-10T20:02:54.645Z,8.70
2019-02-10T20:05:27.691Z,8.80
2019-02-10T20:08:09.918Z,8.70
2019-02-10T20:10:42.886Z,8.70
2019-02-10T20:13:29.363Z,8.70
2019-02-10T20:16:02.539Z,8.60
2019-02-10T20:18:44.711Z,8.70
2019-02-10T20:21:14.982Z,8.70
2019-02-10T20:23:47.699Z,8.70
2019-02-10T20:26:20.658Z,8.60
2019-02-10T20:28:50.878Z,8.60
2019-02-10T20:31:26.996Z,8.60
2019-02-10T20:33:57.156Z,8.60
2019-02-10T20:36:30.314Z,8.60
2019-02-10T20:39:03.275Z,8.60
2019-02-10T20:41:48.596Z,8.60
2019-02-10T20:44:24.468Z,8.60
2019-02-10T20:46:54.611Z,8.50
2019-02-10T20:49:27.599Z,8.50
2019-02-10T20:51:57.804Z,8.50
2019-02-10T20:54:30.988Z,8.50
2019-02-10T20:57:13.450Z,8.50
2019-02-10T20:59:59.928Z,8.50
2019-02-10T21:02:38.972Z,8.50
2019-02-10T21:05:09.097Z,8.40
2019-02-10T21:07:51.380Z,8.40
2019-02-10T21:10:21.548Z,8.40
2019-02-10T21:13:15.748Z,8.40
2019-02-10T21:15:48.963Z,8.40
2019-02-10T21:18:19.068Z,8.30
2019-02-10T21:20:49.338Z,8.30
2019-02-10T21:23:31.461Z,8.30
2019-02-10T21:26:01.747Z,8.20
2019-02-10T21:28:31.891Z,8.20
2019-02-10T21:31:17.322Z,8.10
2019-02-10T21:34:01.035Z,8.00
2019-02-10T21:36:43.012Z,7.90
2019-02-10T21:39:18.901Z,7.80
2019-02-10T21:41:52.091Z,7.80
2019-02-10T21:44:25.100Z,7.80
2019-02-10T21:46:55.284Z,7.80
2019-02-10T21:49:24.197Z,7.70
2019-02-10T21:51:52.827Z,7.70
2019-02-10T21:54:21.454Z,7.70
2019-02-10T21:56:50.180Z,7.80
2019-02-10T21:59:18.676Z,7.80
2019-02-10T22:01:47.250Z,7.80
2019-02-10T22:04:15.743Z,7.80
2019-02-10T22:06:44.388Z,7.80
2019-02-10T22:09:12.972Z,7.80
2019-02-10T22:11:41.659Z,7.80
2019-02-10T22:14:10.251Z,7.80
2019-02-10T22:16:38.924Z,7.70
2019-02-10T22:19:07.628Z,7.70
2019-02-10T22:21:36.258Z,7.70
2019-02-10T22:24:04.851Z,7.70
2019-02-10T22:26:33.572Z,7.70
2019-02-10T22:29:02.133Z,7.60
2019-02-10T22:31:30.700Z,7.60
2019-02-10T22:33:59.267Z,7.60
2019-02-10T22:36:27.708Z,7.50
2019-02-10T22:38:56.267Z,7.50
2019-02-10T22:41:24.995Z,7.40
2019-02-10T22:43:53.596Z,7.40
2019-02-10T22:46:22.156Z,7.30
2019-02-10T22:48:50.860Z,7.30
2019-02-10T22:51:19.364Z,7.30
2019-02-10T22:53:47.948Z,7.30
2019-02-10T22:56:16.516Z,7.20
2019-02-10T22:58:45.154Z,7.20
2019-02-10T23:01:13.724Z,7.20
2019-02-10T23:03:42.411Z,7.20
2019-02-10T23:06:10.932Z,7.20
2019-02-10T23:08:39.482Z,7.20
2019-02-10T23:11:07.955Z,7.20
2019-02-10T23:13:36.443Z,7.10
2019-02-10T23:16:05.019Z,7.10
2019-02-10T23:18:33.651Z,7.10
2019-02-10T23:21:02.283Z,7.10
2019-02-10T23:23:30.876Z,7.10
2019-02-10T23:25:59.436Z,7.10
2019-02-10T23:28:27.954Z,7.10
2019-02-10T23:30:56.524Z,7.10
2019-02-10T23:33:24.982Z,7.10
2019-02-10T23:35:53.660Z,7.10
2019-02-10T23:38:22.283Z,7.10
2019-02-10T23:40:51.011Z,7.10
2019-02-10T23:43:19.645Z,7.10
2019-02-10T23:45:48.138Z,7.10
2019-02-10T23:48:16.893Z,7.10
2019-02-10T23:50:45.284Z,7.10
2019-02-10T23:53:13.820Z,7.10
2019-02-10T23:55:42.276Z,7.10
2019-02-10T23:58:10.916Z,7.10
